sensor_id;sensor_type;location;lat;lon;timestamp;temperature;humidity
44170;DHT22;29836;52.286;9.576;2023-02-26T00:01:17;-2.80;99.90
44170;DHT22;29836;52.286;9.576;2023-02-26T00:03:47;-2.80;99.90
44170;DHT22;29836;52.286;9.576;2023-02-26T00:06:12;-2.90;99.90
44170;DHT22;29836;52.286;9.576;2023-02-26T00:08:38;-2.90;99.90
44170;DHT22;29836;52.286;9.576;2023-02-26T00:11:06;-2.90;99.90
44170;DHT22;29836;52.286;9.576;2023-02-26T00:13:32;-2.90;99.90
44170;DHT22;29836;52.286;9.576;2023-02-26T00:16:01;-2.90;99.90
44170;DHT22;29836;52.286;9.576;2023-02-26T00:18:27;-2.80;99.90
44170;DHT22;29836;52.286;9.576;2023-02-26T00:20:53;-2.90;99.90
44170;DHT22;29836;52.286;9.576;2023-02-26T00:23:19;-2.90;99.90
44170;DHT22;29836;52.286;9.576;2023-02-26T00:25:45;-2.90;99.90
44170;DHT22;29836;52.286;9.576;2023-02-26T00:28:12;-3.00;99.90
44170;DHT22;29836;52.286;9.576;2023-02-26T00:30:38;-3.00;99.90
44170;DHT22;29836;52.286;9.576;2023-02-26T00:33:04;-3.00;99.90
44170;DHT22;29836;52.286;9.576;2023-02-26T00:35:30;-3.00;99.90
44170;DHT22;29836;52.286;9.576;2023-02-26T00:40:47;-2.90;99.90
44170;DHT22;29836;52.286;9.576;2023-02-26T00:43:22;-2.80;99.90
44170;DHT22;29836;52.286;9.576;2023-02-26T00:46:01;-2.80;99.90
44170;DHT22;29836;52.286;9.576;2023-02-26T00:49:00;-2.70;99.90
44170;DHT22;29836;52.286;9.576;2023-02-26T00:51:40;-2.70;99.90
44170;DHT22;29836;52.286;9.576;2023-02-26T00:54:17;-2.70;99.90
44170;DHT22;29836;52.286;9.576;2023-02-26T00:56:43;-2.60;99.90
44170;DHT22;29836;52.286;9.576;2023-02-26T00:59:09;-2.60;99.90
44170;DHT22;29836;52.286;9.576;2023-02-26T01:01:34;-2.50;99.90
44170;DHT22;29836;52.286;9.576;2023-02-26T01:04:00;-2.50;99.90
44170;DHT22;29836;52.286;9.576;2023-02-26T01:06:32;-2.50;99.90
44170;DHT22;29836;52.286;9.576;2023-02-26T01:11:29;-2.60;99.90
44170;DHT22;29836;52.286;9.576;2023-02-26T01:13:55;-2.70;99.90
44170;DHT22;29836;52.286;9.576;2023-02-26T01:16:24;-2.70;99.90
44170;DHT22;29836;52.286;9.576;2023-02-26T01:19:26;-2.70;99.90
44170;DHT22;29836;52.286;9.576;2023-02-26T01:22:00;-2.60;99.90
44170;DHT22;29836;52.286;9.576;2023-02-26T01:24:29;-2.50;99.90
44170;DHT22;29836;52.286;9.576;2023-02-26T01:26:55;-2.50;99.90
44170;DHT22;29836;52.286;9.576;2023-02-26T01:29:21;-2.50;99.90
44170;DHT22;29836;52.286;9.576;2023-02-26T01:32:00;-2.60;99.90
44170;DHT22;29836;52.286;9.576;2023-02-26T01:34:43;-2.60;99.90
44170;DHT22;29836;52.286;9.576;2023-02-26T01:37:47;-2.70;99.90
44170;DHT22;29836;52.286;9.576;2023-02-26T01:43:24;-2.60;99.90
44170;DHT22;29836;52.286;9.576;2023-02-26T01:46:00;-2.50;99.90
44170;DHT22;29836;52.286;9.576;2023-02-26T01:51:09;-2.40;99.90
44170;DHT22;29836;52.286;9.576;2023-02-26T01:53:34;-2.30;99.90
44170;DHT22;29836;52.286;9.576;2023-02-26T01:56:17;-2.20;99.90
44170;DHT22;29836;52.286;9.576;2023-02-26T01:58:43;-2.20;99.90
44170;DHT22;29836;52.286;9.576;2023-02-26T02:01:10;-2.20;99.90
44170;DHT22;29836;52.286;9.576;2023-02-26T02:03:37;-2.20;99.90
44170;DHT22;29836;52.286;9.576;2023-02-26T02:06:09;-2.20;99.90
44170;DHT22;29836;52.286;9.576;2023-02-26T02:08:37;-2.10;99.90
44170;DHT22;29836;52.286;9.576;2023-02-26T02:11:06;-2.10;99.90
44170;DHT22;29836;52.286;9.576;2023-02-26T02:19:22;-2.10;99.90
44170;DHT22;29836;52.286;9.576;2023-02-26T02:25:11;-2.00;99.90
44170;DHT22;29836;52.286;9.576;2023-02-26T02:27:45;-2.10;99.90
44170;DHT22;29836;52.286;9.576;2023-02-26T02:32:55;-2.10;99.90
44170;DHT22;29836;52.286;9.576;2023-02-26T02:35:33;-2.00;99.90
44170;DHT22;29836;52.286;9.576;2023-02-26T02:38:19;-2.00;99.90
44170;DHT22;29836;52.286;9.576;2023-02-26T02:40:50;-2.00;99.90
44170;DHT22;29836;52.286;9.576;2023-02-26T02:43:29;-2.00;99.90
44170;DHT22;29836;52.286;9.576;2023-02-26T02:46:05;-2.00;99.90
44170;DHT22;29836;52.286;9.576;2023-02-26T02:48:38;-2.00;99.90
44170;DHT22;29836;52.286;9.576;2023-02-26T02:51:21;-2.00;99.90
44170;DHT22;29836;52.286;9.576;2023-02-26T02:53:58;-2.00;99.90
44170;DHT22;29836;52.286;9.576;2023-02-26T02:56:36;-2.00;99.90
44170;DHT22;29836;52.286;9.576;2023-02-26T02:59:32;-2.00;99.90
44170;DHT22;29836;52.286;9.576;2023-02-26T03:02:10;-2.00;99.90
44170;DHT22;29836;52.286;9.576;2023-02-26T03:04:39;-2.00;99.90
44170;DHT22;29836;52.286;9.576;2023-02-26T03:07:05;-2.00;99.90
44170;DHT22;29836;52.286;9.576;2023-02-26T03:09:32;-2.00;99.90
44170;DHT22;29836;52.286;9.576;2023-02-26T03:11:57;-2.10;99.90
44170;DHT22;29836;52.286;9.576;2023-02-26T03:14:24;-2.10;99.90
44170;DHT22;29836;52.286;9.576;2023-02-26T03:17:08;-2.10;99.90
44170;DHT22;29836;52.286;9.576;2023-02-26T03:19:57;-2.10;99.90
44170;DHT22;29836;52.286;9.576;2023-02-26T03:22:41;-2.10;99.90
44170;DHT22;29836;52.286;9.576;2023-02-26T03:25:34;-2.10;99.90
44170;DHT22;29836;52.286;9.576;2023-02-26T03:30:44;-2.20;99.90
44170;DHT22;29836;52.286;9.576;2023-02-26T03:33:24;-2.20;99.90
44170;DHT22;29836;52.286;9.576;2023-02-26T03:36:13;-2.20;99.90
44170;DHT22;29836;52.286;9.576;2023-02-26T03:38:52;-2.10;99.90
44170;DHT22;29836;52.286;9.576;2023-02-26T03:41:24;-2.10;99.90
44170;DHT22;29836;52.286;9.576;2023-02-26T03:43:58;-2.10;99.90
44170;DHT22;29836;52.286;9.576;2023-02-26T03:46:34;-2.10;99.90
44170;DHT22;29836;52.286;9.576;2023-02-26T03:49:06;-2.10;99.90
44170;DHT22;29836;52.286;9.576;2023-02-26T03:51:36;-2.20;99.90
44170;DHT22;29836;52.286;9.576;2023-02-26T03:54:27;-2.10;99.90
44170;DHT22;29836;52.286;9.576;2023-02-26T03:56:54;-2.10;99.90
44170;DHT22;29836;52.286;9.576;2023-02-26T03:59:19;-2.10;99.90
44170;DHT22;29836;52.286;9.576;2023-02-26T04:02:12;-2.10;99.90
44170;DHT22;29836;52.286;9.576;2023-02-26T04:04:50;-2.10;99.90
44170;DHT22;29836;52.286;9.576;2023-02-26T04:07:17;-2.00;99.90
44170;DHT22;29836;52.286;9.576;2023-02-26T04:09:46;-2.00;99.90
44170;DHT22;29836;52.286;9.576;2023-02-26T04:12:12;-2.00;99.90
44170;DHT22;29836;52.286;9.576;2023-02-26T04:14:38;-2.00;99.90
44170;DHT22;29836;52.286;9.576;2023-02-26T04:17:04;-2.00;99.90
44170;DHT22;29836;52.286;9.576;2023-02-26T04:19:29;-2.10;99.90
44170;DHT22;29836;52.286;9.576;2023-02-26T04:21:55;-2.10;99.90
44170;DHT22;29836;52.286;9.576;2023-02-26T04:24:20;-2.10;99.90
44170;DHT22;29836;52.286;9.576;2023-02-26T04:26:46;-2.00;99.90
44170;DHT22;29836;52.286;9.576;2023-02-26T04:29:12;-2.00;99.90
44170;DHT22;29836;52.286;9.576;2023-02-26T04:31:37;-2.10;99.90
44170;DHT22;29836;52.286;9.576;2023-02-26T04:34:03;-2.00;99.90
44170;DHT22;29836;52.286;9.576;2023-02-26T04:36:28;-2.00;99.90
44170;DHT22;29836;52.286;9.576;2023-02-26T04:38:54;-2.00;99.90
44170;DHT22;29836;52.286;9.576;2023-02-26T04:41:20;-2.00;99.90
44170;DHT22;29836;52.286;9.576;2023-02-26T04:43:45;-2.00;99.90
44170;DHT22;29836;52.286;9.576;2023-02-26T04:46:11;-2.00;99.90
44170;DHT22;29836;52.286;9.576;2023-02-26T04:48:36;-2.00;99.90
44170;DHT22;29836;52.286;9.576;2023-02-26T04:51:02;-2.00;99.90
44170;DHT22;29836;52.286;9.576;2023-02-26T04:53:28;-2.00;99.90
44170;DHT22;29836;52.286;9.576;2023-02-26T04:55:53;-2.10;99.90
44170;DHT22;29836;52.286;9.576;2023-02-26T04:58:19;-2.10;99.90
44170;DHT22;29836;52.286;9.576;2023-02-26T05:00:48;-2.10;99.90
44170;DHT22;29836;52.286;9.576;2023-02-26T05:03:14;-2.10;99.90
44170;DHT22;29836;52.286;9.576;2023-02-26T05:05:39;-2.10;99.90
44170;DHT22;29836;52.286;9.576;2023-02-26T05:08:05;-2.10;99.90
44170;DHT22;29836;52.286;9.576;2023-02-26T05:10:30;-2.10;99.90
44170;DHT22;29836;52.286;9.576;2023-02-26T05:12:56;-2.10;99.90
44170;DHT22;29836;52.286;9.576;2023-02-26T05:15:21;-2.10;99.90
44170;DHT22;29836;52.286;9.576;2023-02-26T05:17:47;-2.10;99.90
44170;DHT22;29836;52.286;9.576;2023-02-26T05:20:12;-2.10;99.90
44170;DHT22;29836;52.286;9.576;2023-02-26T05:22:40;-2.10;99.90
44170;DHT22;29836;52.286;9.576;2023-02-26T05:25:06;-2.10;99.90
44170;DHT22;29836;52.286;9.576;2023-02-26T05:27:32;-2.10;99.90
44170;DHT22;29836;52.286;9.576;2023-02-26T05:29:57;-2.10;99.90
44170;DHT22;29836;52.286;9.576;2023-02-26T05:32:23;-2.10;99.90
44170;DHT22;29836;52.286;9.576;2023-02-26T05:34:48;-2.10;99.90
44170;DHT22;29836;52.286;9.576;2023-02-26T05:37:14;-2.10;99.90
44170;DHT22;29836;52.286;9.576;2023-02-26T05:39:39;-2.10;99.90
44170;DHT22;29836;52.286;9.576;2023-02-26T05:42:06;-2.20;99.90
44170;DHT22;29836;52.286;9.576;2023-02-26T05:44:31;-2.40;99.90
44170;DHT22;29836;52.286;9.576;2023-02-26T05:46:57;-2.50;99.90
44170;DHT22;29836;52.286;9.576;2023-02-26T05:49:22;-2.60;99.90
44170;DHT22;29836;52.286;9.576;2023-02-26T05:51:48;-2.70;99.90
44170;DHT22;29836;52.286;9.576;2023-02-26T05:54:13;-2.80;99.90
44170;DHT22;29836;52.286;9.576;2023-02-26T05:56:39;-2.90;99.90
44170;DHT22;29836;52.286;9.576;2023-02-26T05:59:04;-3.00;99.90
44170;DHT22;29836;52.286;9.576;2023-02-26T06:01:30;-3.20;99.90
44170;DHT22;29836;52.286;9.576;2023-02-26T06:03:56;-3.20;99.90
44170;DHT22;29836;52.286;9.576;2023-02-26T06:06:21;-3.20;99.90
44170;DHT22;29836;52.286;9.576;2023-02-26T06:08:47;-3.30;99.90
44170;DHT22;29836;52.286;9.576;2023-02-26T06:11:13;-3.30;99.90
44170;DHT22;29836;52.286;9.576;2023-02-26T06:13:39;-3.40;99.90
44170;DHT22;29836;52.286;9.576;2023-02-26T06:16:05;-3.40;99.90
44170;DHT22;29836;52.286;9.576;2023-02-26T06:18:31;-3.40;99.90
44170;DHT22;29836;52.286;9.576;2023-02-26T06:20:58;-3.40;99.90
44170;DHT22;29836;52.286;9.576;2023-02-26T06:23:24;-3.40;99.90
44170;DHT22;29836;52.286;9.576;2023-02-26T06:25:51;-3.40;99.90
44170;DHT22;29836;52.286;9.576;2023-02-26T06:28:17;-3.40;99.90
44170;DHT22;29836;52.286;9.576;2023-02-26T06:30:43;-3.40;99.90
44170;DHT22;29836;52.286;9.576;2023-02-26T06:33:09;-3.40;99.90
44170;DHT22;29836;52.286;9.576;2023-02-26T06:35:34;-3.40;99.90
44170;DHT22;29836;52.286;9.576;2023-02-26T06:38:00;-3.40;99.90
44170;DHT22;29836;52.286;9.576;2023-02-26T06:40:26;-3.40;99.90
44170;DHT22;29836;52.286;9.576;2023-02-26T06:42:51;-3.50;99.90
44170;DHT22;29836;52.286;9.576;2023-02-26T06:45:17;-3.40;99.90
44170;DHT22;29836;52.286;9.576;2023-02-26T06:47:42;-3.40;99.90
44170;DHT22;29836;52.286;9.576;2023-02-26T06:50:08;-3.10;99.90
44170;DHT22;29836;52.286;9.576;2023-02-26T06:52:34;-2.60;99.90
44170;DHT22;29836;52.286;9.576;2023-02-26T06:55:00;-1.90;99.90
44170;DHT22;29836;52.286;9.576;2023-02-26T06:57:26;-1.20;99.90
44170;DHT22;29836;52.286;9.576;2023-02-26T06:59:51;-0.60;99.90
44170;DHT22;29836;52.286;9.576;2023-02-26T07:02:19;-0.10;99.90
44170;DHT22;29836;52.286;9.576;2023-02-26T07:04:45;0.30;99.90
44170;DHT22;29836;52.286;9.576;2023-02-26T07:07:11;0.80;99.90
44170;DHT22;29836;52.286;9.576;2023-02-26T07:09:37;0.80;99.90
44170;DHT22;29836;52.286;9.576;2023-02-26T07:12:03;1.20;99.90
44170;DHT22;29836;52.286;9.576;2023-02-26T07:14:29;1.40;99.90
44170;DHT22;29836;52.286;9.576;2023-02-26T07:16:55;1.60;99.90
44170;DHT22;29836;52.286;9.576;2023-02-26T07:19:20;1.50;99.90
44170;DHT22;29836;52.286;9.576;2023-02-26T07:21:46;1.70;99.90
44170;DHT22;29836;52.286;9.576;2023-02-26T07:24:13;1.60;99.90
44170;DHT22;29836;52.286;9.576;2023-02-26T07:26:38;1.50;99.90
44170;DHT22;29836;52.286;9.576;2023-02-26T07:29:04;1.70;99.90
44170;DHT22;29836;52.286;9.576;2023-02-26T07:31:30;1.80;99.90
44170;DHT22;29836;52.286;9.576;2023-02-26T07:33:56;1.90;99.90
44170;DHT22;29836;52.286;9.576;2023-02-26T07:36:22;2.10;99.90
44170;DHT22;29836;52.286;9.576;2023-02-26T07:38:47;1.90;99.90
44170;DHT22;29836;52.286;9.576;2023-02-26T07:41:13;2.10;99.90
44170;DHT22;29836;52.286;9.576;2023-02-26T07:43:39;2.40;99.90
44170;DHT22;29836;52.286;9.576;2023-02-26T07:46:04;2.40;99.90
44170;DHT22;29836;52.286;9.576;2023-02-26T07:48:30;2.20;99.90
44170;DHT22;29836;52.286;9.576;2023-02-26T07:50:56;2.20;99.90
44170;DHT22;29836;52.286;9.576;2023-02-26T07:53:22;2.60;99.90
44170;DHT22;29836;52.286;9.576;2023-02-26T07:55:48;2.70;99.90
44170;DHT22;29836;52.286;9.576;2023-02-26T07:58:13;2.70;99.90
44170;DHT22;29836;52.286;9.576;2023-02-26T08:00:39;2.40;99.90
44170;DHT22;29836;52.286;9.576;2023-02-26T08:03:05;2.70;99.90
44170;DHT22;29836;52.286;9.576;2023-02-26T08:05:30;3.10;99.90
44170;DHT22;29836;52.286;9.576;2023-02-26T08:07:56;3.40;99.90
44170;DHT22;29836;52.286;9.576;2023-02-26T08:10:22;3.50;99.90
44170;DHT22;29836;52.286;9.576;2023-02-26T08:12:47;3.50;99.90
44170;DHT22;29836;52.286;9.576;2023-02-26T08:15:13;3.30;99.90
44170;DHT22;29836;52.286;9.576;2023-02-26T08:17:40;2.80;99.90
44170;DHT22;29836;52.286;9.576;2023-02-26T08:20:07;2.60;99.90
44170;DHT22;29836;52.286;9.576;2023-02-26T08:22:33;2.90;99.90
44170;DHT22;29836;52.286;9.576;2023-02-26T08:24:59;3.90;99.90
44170;DHT22;29836;52.286;9.576;2023-02-26T08:27:25;4.90;99.70
44170;DHT22;29836;52.286;9.576;2023-02-26T08:29:50;5.90;98.40
44170;DHT22;29836;52.286;9.576;2023-02-26T08:32:17;6.50;95.40
44170;DHT22;29836;52.286;9.576;2023-02-26T08:34:44;6.70;93.80
44170;DHT22;29836;52.286;9.576;2023-02-26T08:37:10;7.40;92.90
44170;DHT22;29836;52.286;9.576;2023-02-26T08:39:37;7.90;90.10
44170;DHT22;29836;52.286;9.576;2023-02-26T08:42:04;8.50;83.40
44170;DHT22;29836;52.286;9.576;2023-02-26T08:44:30;8.50;80.50
44170;DHT22;29836;52.286;9.576;2023-02-26T08:46:56;8.30;81.20
44170;DHT22;29836;52.286;9.576;2023-02-26T08:49:21;9.10;80.00
44170;DHT22;29836;52.286;9.576;2023-02-26T08:51:47;9.40;77.10
44170;DHT22;29836;52.286;9.576;2023-02-26T08:54:13;9.40;76.80
44170;DHT22;29836;52.286;9.576;2023-02-26T08:56:38;9.50;75.00
44170;DHT22;29836;52.286;9.576;2023-02-26T08:59:04;9.30;76.20
44170;DHT22;29836;52.286;9.576;2023-02-26T09:01:29;10.10;71.60
44170;DHT22;29836;52.286;9.576;2023-02-26T09:03:55;11.20;69.40
44170;DHT22;29836;52.286;9.576;2023-02-26T09:06:21;11.10;66.60
44170;DHT22;29836;52.286;9.576;2023-02-26T09:08:46;10.80;65.70
44170;DHT22;29836;52.286;9.576;2023-02-26T09:11:12;11.20;64.90
44170;DHT22;29836;52.286;9.576;2023-02-26T09:13:37;11.20;64.80
44170;DHT22;29836;52.286;9.576;2023-02-26T09:16:03;11.40;63.10
44170;DHT22;29836;52.286;9.576;2023-02-26T09:18:29;11.70;62.40
44170;DHT22;29836;52.286;9.576;2023-02-26T09:20:55;11.90;62.40
44170;DHT22;29836;52.286;9.576;2023-02-26T09:23:20;12.50;61.20
44170;DHT22;29836;52.286;9.576;2023-02-26T09:25:51;12.10;59.40
44170;DHT22;29836;52.286;9.576;2023-02-26T09:28:18;11.90;60.70
44170;DHT22;29836;52.286;9.576;2023-02-26T09:30:43;12.20;58.50
44170;DHT22;29836;52.286;9.576;2023-02-26T09:33:09;10.40;60.90
44170;DHT22;29836;52.286;9.576;2023-02-26T09:35:34;10.80;63.50
44170;DHT22;29836;52.286;9.576;2023-02-26T09:38:01;11.20;61.30
44170;DHT22;29836;52.286;9.576;2023-02-26T09:43:48;11.20;59.90
44170;DHT22;29836;52.286;9.576;2023-02-26T09:52:16;11.50;58.00
44170;DHT22;29836;52.286;9.576;2023-02-26T09:54:51;11.90;57.80
44170;DHT22;29836;52.286;9.576;2023-02-26T09:57:28;12.00;55.90
44170;DHT22;29836;52.286;9.576;2023-02-26T09:59:54;11.70;55.90
44170;DHT22;29836;52.286;9.576;2023-02-26T10:02:27;11.70;56.90
44170;DHT22;29836;52.286;9.576;2023-02-26T10:07:57;12.00;54.80
44170;DHT22;29836;52.286;9.576;2023-02-26T10:11:13;11.90;54.80
44170;DHT22;29836;52.286;9.576;2023-02-26T10:13:45;11.40;56.10
44170;DHT22;29836;52.286;9.576;2023-02-26T10:16:19;10.60;56.40
44170;DHT22;29836;52.286;9.576;2023-02-26T10:18:51;11.10;58.90
44170;DHT22;29836;52.286;9.576;2023-02-26T10:21:24;11.50;57.00
44170;DHT22;29836;52.286;9.576;2023-02-26T10:23:56;11.60;56.00
44170;DHT22;29836;52.286;9.576;2023-02-26T10:26:26;12.10;55.00
44170;DHT22;29836;52.286;9.576;2023-02-26T10:31:54;11.30;53.70
44170;DHT22;29836;52.286;9.576;2023-02-26T10:37:20;12.00;52.20
44170;DHT22;29836;52.286;9.576;2023-02-26T10:39:52;12.10;55.30
44170;DHT22;29836;52.286;9.576;2023-02-26T10:42:27;12.30;52.50
44170;DHT22;29836;52.286;9.576;2023-02-26T10:45:29;12.60;51.70
44170;DHT22;29836;52.286;9.576;2023-02-26T10:50:30;10.70;54.00
44170;DHT22;29836;52.286;9.576;2023-02-26T10:52:56;11.10;52.90
44170;DHT22;29836;52.286;9.576;2023-02-26T10:55:52;11.00;53.90
44170;DHT22;29836;52.286;9.576;2023-02-26T10:58:23;9.40;59.20
44170;DHT22;29836;52.286;9.576;2023-02-26T11:00:51;9.70;57.70
44170;DHT22;29836;52.286;9.576;2023-02-26T11:03:37;10.30;56.70
44170;DHT22;29836;52.286;9.576;2023-02-26T11:06:05;10.70;53.20
44170;DHT22;29836;52.286;9.576;2023-02-26T11:11:02;12.00;54.50
44170;DHT22;29836;52.286;9.576;2023-02-26T11:13:30;11.90;54.50
44170;DHT22;29836;52.286;9.576;2023-02-26T11:16:05;11.40;52.70
44170;DHT22;29836;52.286;9.576;2023-02-26T11:18:52;9.70;56.20
44170;DHT22;29836;52.286;9.576;2023-02-26T11:21:22;7.90;61.90
44170;DHT22;29836;52.286;9.576;2023-02-26T11:23:53;7.10;63.60
44170;DHT22;29836;52.286;9.576;2023-02-26T11:26:25;6.40;65.10
44170;DHT22;29836;52.286;9.576;2023-02-26T11:28:53;6.00;64.60
44170;DHT22;29836;52.286;9.576;2023-02-26T11:31:22;5.10;65.50
44170;DHT22;29836;52.286;9.576;2023-02-26T11:33:50;4.50;67.50
44170;DHT22;29836;52.286;9.576;2023-02-26T11:36:19;4.00;68.80
44170;DHT22;29836;52.286;9.576;2023-02-26T11:38:57;3.80;69.20
44170;DHT22;29836;52.286;9.576;2023-02-26T11:41:27;3.80;72.20
44170;DHT22;29836;52.286;9.576;2023-02-26T11:44:10;3.90;71.20
44170;DHT22;29836;52.286;9.576;2023-02-26T11:46:42;3.90;68.80
44170;DHT22;29836;52.286;9.576;2023-02-26T11:49:11;3.70;69.70
44170;DHT22;29836;52.286;9.576;2023-02-26T11:51:42;3.60;73.40
44170;DHT22;29836;52.286;9.576;2023-02-26T11:54:20;3.60;73.50
44170;DHT22;29836;52.286;9.576;2023-02-26T11:56:46;3.50;72.20
44170;DHT22;29836;52.286;9.576;2023-02-26T11:59:19;3.40;72.50
44170;DHT22;29836;52.286;9.576;2023-02-26T12:01:46;3.40;72.60
44170;DHT22;29836;52.286;9.576;2023-02-26T12:04:14;3.20;73.30
44170;DHT22;29836;52.286;9.576;2023-02-26T12:06:40;3.10;74.40
44170;DHT22;29836;52.286;9.576;2023-02-26T12:09:11;3.10;73.70
44170;DHT22;29836;52.286;9.576;2023-02-26T12:17:15;3.00;71.40
44170;DHT22;29836;52.286;9.576;2023-02-26T12:19:51;2.90;71.90
44170;DHT22;29836;52.286;9.576;2023-02-26T12:30:59;3.20;77.70
44170;DHT22;29836;52.286;9.576;2023-02-26T12:33:42;3.40;76.00
44170;DHT22;29836;52.286;9.576;2023-02-26T12:47:44;3.50;81.70
44170;DHT22;29836;52.286;9.576;2023-02-26T12:50:39;3.20;75.70
44170;DHT22;29836;52.286;9.576;2023-02-26T12:56:18;2.90;77.30
44170;DHT22;29836;52.286;9.576;2023-02-26T12:59:08;2.90;78.70
44170;DHT22;29836;52.286;9.576;2023-02-26T13:04:21;2.80;76.60
44170;DHT22;29836;52.286;9.576;2023-02-26T13:06:59;2.80;75.70
44170;DHT22;29836;52.286;9.576;2023-02-26T13:10:00;2.80;75.50
44170;DHT22;29836;52.286;9.576;2023-02-26T13:12:49;2.80;76.40
44170;DHT22;29836;52.286;9.576;2023-02-26T13:15:46;2.80;74.80
44170;DHT22;29836;52.286;9.576;2023-02-26T13:18:34;2.80;78.80
44170;DHT22;29836;52.286;9.576;2023-02-26T13:21:05;3.00;77.40
44170;DHT22;29836;52.286;9.576;2023-02-26T13:23:46;3.00;79.60
44170;DHT22;29836;52.286;9.576;2023-02-26T13:26:13;2.80;78.40
44170;DHT22;29836;52.286;9.576;2023-02-26T13:28:43;2.60;79.70
44170;DHT22;29836;52.286;9.576;2023-02-26T13:31:20;2.60;77.30
44170;DHT22;29836;52.286;9.576;2023-02-26T13:33:48;2.70;80.20
44170;DHT22;29836;52.286;9.576;2023-02-26T13:36:15;2.90;80.70
44170;DHT22;29836;52.286;9.576;2023-02-26T13:44:30;2.70;81.90
44170;DHT22;29836;52.286;9.576;2023-02-26T13:52:30;2.80;81.30
44170;DHT22;29836;52.286;9.576;2023-02-26T13:54:56;2.70;79.20
44170;DHT22;29836;52.286;9.576;2023-02-26T13:57:47;2.70;81.10
44170;DHT22;29836;52.286;9.576;2023-02-26T14:00:33;2.80;79.20
44170;DHT22;29836;52.286;9.576;2023-02-26T14:08:23;2.80;81.90
44170;DHT22;29836;52.286;9.576;2023-02-26T14:13:22;2.80;82.60
44170;DHT22;29836;52.286;9.576;2023-02-26T14:15:58;2.80;80.80
44170;DHT22;29836;52.286;9.576;2023-02-26T14:21:54;2.90;79.20
44170;DHT22;29836;52.286;9.576;2023-02-26T14:24:37;2.80;80.40
44170;DHT22;29836;52.286;9.576;2023-02-26T14:28:17;2.80;81.30
44170;DHT22;29836;52.286;9.576;2023-02-26T14:32:29;2.80;78.20
44170;DHT22;29836;52.286;9.576;2023-02-26T14:34:59;2.80;79.30
44170;DHT22;29836;52.286;9.576;2023-02-26T14:37:27;2.80;81.80
44170;DHT22;29836;52.286;9.576;2023-02-26T14:40:03;2.80;78.10
44170;DHT22;29836;52.286;9.576;2023-02-26T14:42:43;2.80;75.80
44170;DHT22;29836;52.286;9.576;2023-02-26T14:45:35;2.80;77.30
44170;DHT22;29836;52.286;9.576;2023-02-26T14:48:10;2.80;82.60
44170;DHT22;29836;52.286;9.576;2023-02-26T14:50:43;2.80;78.50
44170;DHT22;29836;52.286;9.576;2023-02-26T14:56:05;2.70;75.70
44170;DHT22;29836;52.286;9.576;2023-02-26T15:01:50;2.70;74.80
44170;DHT22;29836;52.286;9.576;2023-02-26T15:10:08;2.70;71.80
44170;DHT22;29836;52.286;9.576;2023-02-26T15:13:06;2.60;73.80
44170;DHT22;29836;52.286;9.576;2023-02-26T15:15:41;2.70;76.30
44170;DHT22;29836;52.286;9.576;2023-02-26T15:21:02;2.60;78.40
44170;DHT22;29836;52.286;9.576;2023-02-26T15:23:51;2.50;77.80
44170;DHT22;29836;52.286;9.576;2023-02-26T15:26:35;2.60;76.20
44170;DHT22;29836;52.286;9.576;2023-02-26T15:29:05;2.60;82.10
44170;DHT22;29836;52.286;9.576;2023-02-26T15:31:36;2.70;77.80
44170;DHT22;29836;52.286;9.576;2023-02-26T15:34:02;2.70;79.50
44170;DHT22;29836;52.286;9.576;2023-02-26T15:36:29;2.70;79.30
44170;DHT22;29836;52.286;9.576;2023-02-26T15:39:00;2.70;82.60
44170;DHT22;29836;52.286;9.576;2023-02-26T15:41:29;2.80;83.60
44170;DHT22;29836;52.286;9.576;2023-02-26T15:44:01;2.80;80.90
44170;DHT22;29836;52.286;9.576;2023-02-26T15:46:36;2.80;84.80
44170;DHT22;29836;52.286;9.576;2023-02-26T15:49:10;2.70;80.60
44170;DHT22;29836;52.286;9.576;2023-02-26T15:51:37;2.60;85.00
44170;DHT22;29836;52.286;9.576;2023-02-26T15:54:03;2.40;87.10
44170;DHT22;29836;52.286;9.576;2023-02-26T15:56:35;2.30;87.00
44170;DHT22;29836;52.286;9.576;2023-02-26T15:59:12;2.10;88.10
44170;DHT22;29836;52.286;9.576;2023-02-26T16:01:41;1.90;89.70
44170;DHT22;29836;52.286;9.576;2023-02-26T16:04:14;1.80;90.60
44170;DHT22;29836;52.286;9.576;2023-02-26T16:06:42;1.70;91.90
44170;DHT22;29836;52.286;9.576;2023-02-26T16:09:19;1.70;92.90
44170;DHT22;29836;52.286;9.576;2023-02-26T16:11:45;1.80;92.00
44170;DHT22;29836;52.286;9.576;2023-02-26T16:14:23;1.90;91.30
44170;DHT22;29836;52.286;9.576;2023-02-26T16:16:53;1.80;93.10
44170;DHT22;29836;52.286;9.576;2023-02-26T16:19:43;1.80;94.20
44170;DHT22;29836;52.286;9.576;2023-02-26T16:22:29;1.60;95.50
44170;DHT22;29836;52.286;9.576;2023-02-26T16:25:05;1.60;97.70
44170;DHT22;29836;52.286;9.576;2023-02-26T16:27:33;1.50;98.00
44170;DHT22;29836;52.286;9.576;2023-02-26T16:30:00;1.50;98.10
44170;DHT22;29836;52.286;9.576;2023-02-26T16:32:29;1.50;99.90
44170;DHT22;29836;52.286;9.576;2023-02-26T16:34:58;1.50;99.60
44170;DHT22;29836;52.286;9.576;2023-02-26T16:37:34;1.60;98.40
44170;DHT22;29836;52.286;9.576;2023-02-26T16:42:50;1.70;99.10
44170;DHT22;29836;52.286;9.576;2023-02-26T16:47:59;1.60;98.80
44170;DHT22;29836;52.286;9.576;2023-02-26T16:50:27;1.50;99.70
44170;DHT22;29836;52.286;9.576;2023-02-26T16:53:06;1.40;99.90
44170;DHT22;29836;52.286;9.576;2023-02-26T16:55:35;1.40;99.90
44170;DHT22;29836;52.286;9.576;2023-02-26T16:58:02;1.40;99.90
44170;DHT22;29836;52.286;9.576;2023-02-26T17:00:31;1.50;99.40
44170;DHT22;29836;52.286;9.576;2023-02-26T17:03:05;1.60;99.30
44170;DHT22;29836;52.286;9.576;2023-02-26T17:05:35;1.60;99.90
44170;DHT22;29836;52.286;9.576;2023-02-26T17:08:08;1.50;99.90
44170;DHT22;29836;52.286;9.576;2023-02-26T17:10:41;1.50;99.90
44170;DHT22;29836;52.286;9.576;2023-02-26T17:13:18;1.50;99.90
44170;DHT22;29836;52.286;9.576;2023-02-26T17:15:48;1.40;99.90
44170;DHT22;29836;52.286;9.576;2023-02-26T17:18:15;1.30;99.90
44170;DHT22;29836;52.286;9.576;2023-02-26T17:20:41;1.30;99.90
44170;DHT22;29836;52.286;9.576;2023-02-26T17:23:09;1.20;99.90
44170;DHT22;29836;52.286;9.576;2023-02-26T17:25:41;1.00;99.90
44170;DHT22;29836;52.286;9.576;2023-02-26T17:28:11;0.90;99.90
44170;DHT22;29836;52.286;9.576;2023-02-26T17:30:38;0.80;99.90
44170;DHT22;29836;52.286;9.576;2023-02-26T17:33:04;0.80;99.90
44170;DHT22;29836;52.286;9.576;2023-02-26T17:35:32;0.80;99.90
44170;DHT22;29836;52.286;9.576;2023-02-26T17:37:58;0.90;99.90
44170;DHT22;29836;52.286;9.576;2023-02-26T17:40:32;0.90;99.90
44170;DHT22;29836;52.286;9.576;2023-02-26T17:42:58;0.90;99.90
44170;DHT22;29836;52.286;9.576;2023-02-26T17:45:24;0.80;99.90
44170;DHT22;29836;52.286;9.576;2023-02-26T17:47:50;0.70;99.90
44170;DHT22;29836;52.286;9.576;2023-02-26T17:50:46;0.60;99.90
44170;DHT22;29836;52.286;9.576;2023-02-26T17:53:16;0.50;99.90
44170;DHT22;29836;52.286;9.576;2023-02-26T17:55:42;0.40;99.90
44170;DHT22;29836;52.286;9.576;2023-02-26T17:58:16;0.30;99.90
44170;DHT22;29836;52.286;9.576;2023-02-26T18:00:42;0.20;99.90
44170;DHT22;29836;52.286;9.576;2023-02-26T18:03:09;0.20;99.90
44170;DHT22;29836;52.286;9.576;2023-02-26T18:05:35;0.30;99.90